Time;durP1;ratioP1;P1;durP2;ratioP2;P2;SDS_P1;SDS_P2;PMS_P1;PMS_P2;Temp;Humidity;BMP_temperature;BMP_pressure;BME280_temperature;BME280_humidity;BME280_pressure;Samples;Min_cycle;Max_cycle;Signal;HPM_P1;HPM_P2
2021/12/16 00:06:17;;;;;;;107.43;42.60;;;;;;;7.86;100.00;103140.06;5051866;28;20494;-70
2021/12/16 00:08:41;;;;;;;105.68;42.28;;;;;;;7.88;100.00;103149.38;5047422;28;20090;-71
2021/12/16 00:30:42;;;;;;;92.55;40.13;;;;;;;7.94;100.00;103143.06;5050601;28;20035;-70
2021/12/16 00:33:31;;;;;;;98.75;40.78;;;;;;;7.92;100.00;103142.31;5045695;28;20175;-70
2021/12/16 00:35:57;;;;;;;98.80;39.75;;;;;;;7.89;100.00;103152.81;5046098;28;20408;-70
2021/12/16 00:38:24;;;;;;;95.95;39.72;;;;;;;7.89;100.00;103155.38;5047681;28;20024;-70
2021/12/16 00:40:49;;;;;;;97.32;39.42;;;;;;;8.06;100.00;103151.91;5048321;28;20024;-70
2021/12/16 00:48:58;;;;;;;94.07;39.33;;;;;;;7.94;100.00;103151.63;5045548;28;20028;-70
2021/12/16 00:54:13;;;;;;;90.05;38.38;;;;;;;7.88;100.00;103162.31;5044543;28;20503;-70
2021/12/16 00:56:54;;;;;;;90.05;38.22;;;;;;;7.80;100.00;103154.97;5047410;28;20097;-71
2021/12/16 00:59:21;;;;;;;89.68;37.85;;;;;;;7.84;100.00;103155.63;5049756;28;20035;-70
2021/12/16 01:04:50;;;;;;;94.25;38.33;;;;;;;7.91;100.00;103164.75;5046446;28;20462;-70
2021/12/16 01:35:13;;;;;;;94.55;38.55;;;;;;;7.82;100.00;103170.38;5025106;28;20411;-79
2021/12/16 01:40:29;;;;;;;97.95;36.50;;;;;;;7.72;100.00;103171.75;5029595;28;20029;-79
2021/12/16 01:46:03;;;;;;;100.03;38.72;;;;;;;7.82;100.00;103175.56;5024992;28;20516;-79
2021/12/16 01:51:22;;;;;;;91.63;38.65;;;;;;;7.82;100.00;103185.88;5025379;28;20033;-79
2021/12/16 01:57:00;;;;;;;94.82;39.30;;;;;;;7.82;100.00;103180.72;5020216;28;20056;-79
2021/12/16 01:59:34;;;;;;;83.28;36.35;;;;;;;7.78;100.00;103185.22;5027817;28;20407;-79
2021/12/16 02:02:11;;;;;;;;;;;;;;;7.73;100.00;103179.44;5009753;28;20041;-79
2021/12/16 02:04:44;;;;;;;91.53;37.05;;;;;;;7.81;100.00;103184.19;5028791;28;20177;-79
2021/12/16 02:07:28;;;;;;;;;;;;;;;7.85;100.00;103185.69;5029691;28;20033;-79
2021/12/16 02:10:01;;;;;;;;;;;;;;;7.74;100.00;103190.59;5029468;28;19917;-79
2021/12/16 02:12:53;;;;;;;;;;;;;;;7.81;100.00;103186.78;5031118;28;19920;-79
2021/12/16 02:36:44;;;;;;;97.78;38.80;;;;;;;7.73;100.00;103188.94;5023197;28;20088;-79
2021/12/16 02:39:15;;;;;;;99.50;38.70;;;;;;;7.68;100.00;103188.34;5015756;28;20022;-79
2021/12/16 02:41:44;;;;;;;97.57;37.35;;;;;;;7.64;100.00;103192.00;5013995;28;20038;-79
2021/12/16 02:44:21;;;;;;;98.43;38.50;;;;;;;7.63;100.00;103200.63;5032650;28;20227;-79
2021/12/16 02:49:44;;;;;;;102.72;38.67;;;;;;;7.66;100.00;103200.50;5010921;28;20041;-79
2021/12/16 02:52:13;;;;;;;93.07;38.13;;;;;;;7.60;100.00;103199.06;5033776;28;20025;-79
2021/12/16 02:54:38;;;;;;;99.55;37.65;;;;;;;7.57;100.00;103201.78;5033363;28;20144;-79
2021/12/16 02:57:05;;;;;;;95.15;38.13;;;;;;;7.61;100.00;103203.31;5031895;28;20114;-79
2021/12/16 02:59:32;;;;;;;102.53;40.40;;;;;;;7.63;100.00;103198.91;5041838;28;20053;-78
2021/12/16 03:02:06;;;;;;;105.93;40.88;;;;;;;7.64;100.00;103197.97;5017202;28;20040;-79
2021/12/16 03:04:32;;;;;;;99.25;39.75;;;;;;;7.64;100.00;103203.16;5030757;28;20083;-79
2021/12/16 03:07:00;;;;;;;100.28;40.30;;;;;;;7.57;100.00;103194.91;5032963;28;20519;-79
2021/12/16 03:15:09;;;;;;;89.82;37.78;;;;;;;7.64;100.00;103205.72;5030807;28;20036;-79
2021/12/16 03:17:46;;;;;;;92.18;38.10;;;;;;;7.66;100.00;103188.41;5014015;28;20080;-79
2021/12/16 03:20:22;;;;;;;102.82;40.67;;;;;;;7.62;100.00;103192.06;5032581;28;20495;-79
2021/12/16 03:23:21;;;;;;;95.97;39.22;;;;;;;7.57;100.00;103196.63;5034536;28;20091;-79
2021/12/16 03:31:05;;;;;;;90.90;38.33;;;;;;;7.53;100.00;103195.94;5033619;28;20121;-79
2021/12/16 03:38:49;;;;;;;104.45;40.67;;;;;;;7.52;100.00;103206.38;5032741;28;20114;-79
2021/12/16 03:41:14;;;;;;;100.00;40.72;;;;;;;7.54;100.00;103196.78;5033734;28;20094;-79
2021/12/16 03:43:41;;;;;;;92.05;39.45;;;;;;;7.49;100.00;103209.91;5028051;28;20542;-79
2021/12/16 03:48:46;;;;;;;89.57;39.25;;;;;;;7.45;100.00;103207.59;5031238;28;20526;-79
2021/12/16 03:51:22;;;;;;;101.57;39.42;;;;;;;7.44;100.00;103203.31;5033175;28;20083;-79
2021/12/16 03:53:51;;;;;;;100.32;40.10;;;;;;;7.48;100.00;103220.31;5013420;28;20041;-79
2021/12/16 03:56:23;;;;;;;;;;;;;;;7.40;100.00;103207.78;5034392;28;20056;-79
2021/12/16 03:59:06;;;;;;;107.43;41.20;;;;;;;7.38;100.00;103219.94;5034359;28;19920;-79
2021/12/16 04:01:43;;;;;;;106.05;41.13;;;;;;;7.34;100.00;103219.25;5036999;28;20913;-79
2021/12/16 04:04:10;;;;;;;113.70;41.63;;;;;;;7.39;100.00;103221.63;5017355;28;20026;-79
2021/12/16 04:06:38;;;;;;;107.10;41.22;;;;;;;7.51;100.00;103218.41;5031069;28;20463;-79
2021/12/16 04:09:11;;;;;;;111.32;44.35;;;;;;;7.44;100.00;103229.13;5033777;28;20439;-79
2021/12/16 04:11:51;;;;;;;100.38;42.78;;;;;;;7.42;100.00;103226.63;5015114;28;20067;-79
2021/12/16 04:14:18;;;;;;;116.28;46.85;;;;;;;7.43;100.00;103232.66;5032346;28;20035;-79
2021/12/16 04:16:49;;;;;;;263.70;97.85;;;;;;;7.38;100.00;103238.00;5012703;28;20443;-79
2021/12/16 04:19:26;;;;;;;293.95;97.05;;;;;;;7.33;100.00;103229.69;5018252;28;20399;-79
2021/12/16 04:21:56;;;;;;;342.52;110.30;;;;;;;7.29;100.00;103228.13;5015327;28;20069;-80
2021/12/16 04:24:23;;;;;;;351.10;120.43;;;;;;;7.27;100.00;103232.53;5033252;28;20116;-79
2021/12/16 04:26:52;;;;;;;369.38;120.45;;;;;;;7.21;100.00;103225.94;5005462;28;20451;-79
2021/12/16 04:29:18;;;;;;;434.35;133.90;;;;;;;7.19;100.00;103220.84;5032686;28;20037;-79
2021/12/16 04:31:45;;;;;;;247.90;85.82;;;;;;;7.16;100.00;103233.09;5033319;28;20049;-79
2021/12/16 04:34:12;;;;;;;224.48;80.43;;;;;;;7.12;100.00;103237.56;5033533;28;20029;-79
2021/12/16 04:36:39;;;;;;;242.15;89.53;;;;;;;7.10;100.00;103238.53;5034086;28;20025;-79
2021/12/16 04:39:10;;;;;;;192.75;73.10;;;;;;;7.08;100.00;103230.03;5018445;28;20044;-79
2021/12/16 04:41:37;;;;;;;181.90;70.15;;;;;;;7.06;100.00;103235.25;5013559;28;20037;-79
2021/12/16 04:44:09;;;;;;;149.65;59.13;;;;;;;7.05;100.00;103237.94;5033116;28;20021;-79
2021/12/16 04:46:36;;;;;;;159.40;62.28;;;;;;;7.01;100.00;103237.25;5010467;28;20502;-79
2021/12/16 04:49:04;;;;;;;146.75;60.10;;;;;;;6.97;100.00;103238.31;5029137;28;20037;-79
2021/12/16 04:51:37;;;;;;;;;;;;;;;6.94;100.00;103235.84;5018451;28;20029;-79
2021/12/16 04:54:04;;;;;;;153.75;64.75;;;;;;;6.93;100.00;103240.19;5024963;28;19917;-79
2021/12/16 04:56:33;;;;;;;162.18;66.80;;;;;;;6.93;100.00;103236.75;5017407;28;20340;-79
2021/12/16 04:59:08;;;;;;;132.32;56.92;;;;;;;6.88;100.00;103229.25;5035578;28;20029;-80
2021/12/16 05:01:37;;;;;;;121.53;51.10;;;;;;;6.86;100.00;103235.38;5035388;28;20492;-79
2021/12/16 05:04:04;;;;;;;116.72;45.05;;;;;;;6.83;100.00;103239.75;5016871;28;20068;-79
2021/12/16 05:06:30;;;;;;;101.43;43.00;;;;;;;6.80;100.00;103234.75;5034418;28;20037;-79
2021/12/16 05:08:56;;;;;;;100.70;43.65;;;;;;;6.78;100.00;103236.56;5017512;28;20029;-79
2021/12/16 05:11:34;;;;;;;104.78;43.30;;;;;;;6.77;100.00;103227.16;5029693;28;20033;-79
2021/12/16 05:14:04;;;;;;;109.78;44.05;;;;;;;6.76;100.00;103228.06;5033473;28;20574;-79
2021/12/16 05:16:31;;;;;;;95.60;38.53;;;;;;;6.69;100.00;103223.28;5034680;28;20038;-79
2021/12/16 05:18:57;;;;;;;93.80;38.92;;;;;;;6.64;100.00;103223.47;5034557;28;20128;-80
2021/12/16 05:24:17;;;;;;;94.85;38.10;;;;;;;6.54;100.00;103224.81;5050168;28;20129;-79
2021/12/16 05:26:45;;;;;;;85.03;35.05;;;;;;;6.49;100.00;103237.06;5016884;28;20025;-79
2021/12/16 05:29:12;;;;;;;93.70;37.38;;;;;;;6.43;100.00;103240.78;5037144;28;20041;-79
2021/12/16 05:31:38;;;;;;;87.82;36.70;;;;;;;6.40;100.00;103248.63;5034469;28;20109;-80
2021/12/16 05:34:05;;;;;;;81.80;33.80;;;;;;;6.36;100.00;103245.34;5035952;28;20038;-79
2021/12/16 05:36:34;;;;;;;94.65;36.42;;;;;;;6.32;100.00;103243.00;5017129;28;20033;-79
2021/12/16 05:38:59;;;;;;;83.78;36.03;;;;;;;6.26;100.00;103241.53;5010873;28;20499;-79
2021/12/16 05:41:30;;;;;;;82.63;34.75;;;;;;;6.21;100.00;103241.72;5029326;28;20032;-79
2021/12/16 05:43:57;;;;;;;84.93;34.55;;;;;;;6.17;100.00;103255.63;5030671;28;20124;-79
2021/12/16 05:46:24;;;;;;;80.55;33.25;;;;;;;6.14;100.00;103254.94;5019340;28;20113;-79
2021/12/16 05:48:53;;;;;;;74.78;31.00;;;;;;;6.10;100.00;103255.97;5023476;28;20458;-79
2021/12/16 05:51:29;;;;;;;73.88;32.45;;;;;;;6.04;100.00;103257.06;5007694;28;20033;-79
2021/12/16 05:53:58;;;;;;;75.03;32.63;;;;;;;6.01;100.00;103262.38;5024754;28;20514;-79
2021/12/16 05:56:37;;;;;;;77.80;32.38;;;;;;;5.98;100.00;103267.66;5029573;28;20026;-78
2021/12/16 05:59:04;;;;;;;77.38;32.13;;;;;;;5.92;100.00;103263.56;5008969;28;20601;-79
2021/12/16 06:01:32;;;;;;;80.68;32.95;;;;;;;5.87;100.00;103272.41;5027566;28;20025;-78
2021/12/16 06:03:58;;;;;;;79.53;33.40;;;;;;;5.81;100.00;103282.03;5008896;28;20551;-79
2021/12/16 06:06:27;;;;;;;83.43;35.38;;;;;;;5.82;100.00;103280.28;5006476;28;20316;-78
2021/12/16 06:08:54;;;;;;;74.53;32.95;;;;;;;5.74;100.00;103283.19;5009167;28;20025;-79
2021/12/16 06:11:24;;;;;;;76.22;31.83;;;;;;;5.70;100.00;103286.81;5011517;28;20036;-78
2021/12/16 06:14:10;;;;;;;74.47;33.03;;;;;;;5.65;100.00;103287.00;5008849;28;20029;-79
2021/12/16 06:22:38;;;;;;;77.57;31.90;;;;;;;5.53;100.00;103302.94;5024086;28;20046;-79
2021/12/16 06:27:44;;;;;;;78.85;33.00;;;;;;;5.49;100.00;103300.56;5019021;28;20032;-79
2021/12/16 06:30:13;;;;;;;73.72;31.52;;;;;;;5.46;100.00;103304.06;5008357;28;20427;-79
2021/12/16 06:32:39;;;;;;;68.20;31.02;;;;;;;5.43;100.00;103306.78;5025751;28;20025;-78
2021/12/16 06:35:06;;;;;;;69.40;31.33;;;;;;;5.39;100.00;103305.25;5023145;28;20478;-78
2021/12/16 06:37:32;;;;;;;74.43;31.90;;;;;;;5.37;100.00;103304.44;5027138;28;20048;-79
2021/12/16 06:39:58;;;;;;;74.13;32.10;;;;;;;5.35;100.00;103301.09;5024415;28;20037;-79
2021/12/16 06:42:35;;;;;;;72.97;31.10;;;;;;;5.31;100.00;103302.94;5020785;28;20120;-79
2021/12/16 06:45:07;;;;;;;77.22;31.27;;;;;;;5.29;100.00;103309.88;5025420;28;20033;-78
2021/12/16 06:47:44;;;;;;;70.38;29.85;;;;;;;5.24;100.00;103315.22;5024141;28;20039;-79
2021/12/16 06:50:13;;;;;;;68.95;29.17;;;;;;;5.21;100.00;103317.91;5029748;28;20045;-79
2021/12/16 06:52:45;;;;;;;64.95;29.55;;;;;;;5.19;100.00;103316.31;5031088;28;20030;-79
2021/12/16 06:55:19;;;;;;;66.82;29.73;;;;;;;5.18;100.00;103320.63;5024589;28;20072;-79
2021/12/16 06:57:51;;;;;;;76.20;29.77;;;;;;;5.16;100.00;103316.41;5031877;28;20030;-79
2021/12/16 07:00:29;;;;;;;68.15;28.30;;;;;;;5.14;100.00;103325.91;5017874;28;20033;-79
2021/12/16 07:03:03;;;;;;;63.28;25.45;;;;;;;5.11;100.00;103323.50;5025545;28;20041;-79
2021/12/16 07:05:35;;;;;;;54.60;24.80;;;;;;;5.07;100.00;103321.03;5009106;28;20038;-79
2021/12/16 07:08:04;;;;;;;64.65;25.60;;;;;;;5.03;100.00;103323.78;5004925;28;20034;-77
2021/12/16 07:10:29;;;;;;;64.07;27.00;;;;;;;5.02;100.00;103328.06;5009688;28;20381;-79
2021/12/16 07:12:57;;;;;;;66.45;27.05;;;;;;;4.98;100.00;103326.50;5026883;28;20039;-79
2021/12/16 07:15:27;;;;;;;61.53;27.17;;;;;;;4.95;99.95;103328.34;5029785;28;20116;-78
2021/12/16 07:17:54;;;;;;;68.03;29.13;;;;;;;4.91;100.00;103347.38;5029594;28;20056;-77
2021/12/16 07:20:24;;;;;;;73.60;29.30;;;;;;;4.87;99.97;103350.03;5031250;28;20115;-77
2021/12/16 07:22:49;;;;;;;66.78;28.70;;;;;;;4.83;100.00;103345.91;5028070;28;20095;-77
2021/12/16 07:25:14;;;;;;;61.50;27.23;;;;;;;4.79;100.00;103357.22;5027906;28;20805;-77
2021/12/16 07:27:40;;;;;;;61.17;26.73;;;;;;;4.77;100.00;103360.75;5037456;28;20052;-77
2021/12/16 07:30:13;;;;;;;63.53;27.05;;;;;;;4.75;99.98;103365.94;5027289;28;20293;-77
2021/12/16 07:32:39;;;;;;;66.55;27.00;;;;;;;4.73;99.60;103366.88;5010862;28;20480;-77
2021/12/16 07:35:08;;;;;;;62.95;25.80;;;;;;;4.70;100.00;103365.25;5017681;28;20034;-77
2021/12/16 07:37:35;;;;;;;64.63;27.02;;;;;;;4.68;100.00;103385.88;5035565;28;20020;-77
2021/12/16 07:40:07;;;;;;;66.90;27.50;;;;;;;4.66;100.00;103386.81;5015639;28;20544;-77
2021/12/16 07:42:43;;;;;;;61.75;26.10;;;;;;;4.64;100.00;103386.03;5034850;28;20029;-77
2021/12/16 07:45:10;;;;;;;74.63;28.65;;;;;;;4.62;100.00;103382.69;5028037;28;20560;-77
2021/12/16 07:47:35;;;;;;;68.10;27.77;;;;;;;4.61;99.98;103409.28;5030872;28;20108;-77
2021/12/16 07:50:02;;;;;;;61.22;25.27;;;;;;;4.55;99.73;103400.03;5031063;28;20457;-77
2021/12/16 07:52:28;;;;;;;68.97;27.50;;;;;;;4.53;99.74;103403.56;5011786;28;20024;-77
2021/12/16 07:54:53;;;;;;;71.18;27.25;;;;;;;4.51;99.84;103410.50;5028224;28;20057;-77
2021/12/16 07:57:19;;;;;;;67.82;27.95;;;;;;;4.48;99.80;103413.97;5002965;28;20171;-77
2021/12/16 07:59:45;;;;;;;66.78;26.88;;;;;;;4.45;99.89;103416.69;5029078;28;20017;-77
2021/12/16 08:02:11;;;;;;;57.55;25.30;;;;;;;4.42;99.67;103419.34;5014961;28;20049;-77
2021/12/16 08:04:42;;;;;;;54.17;24.27;;;;;;;4.40;99.96;103421.13;5027642;28;20039;-77
2021/12/16 08:07:10;;;;;;;54.95;23.73;;;;;;;4.37;99.77;103413.50;5028194;28;20240;-77
2021/12/16 08:09:40;;;;;;;55.35;24.80;;;;;;;4.35;99.68;103418.72;5010208;28;20041;-77
2021/12/16 08:12:08;;;;;;;57.40;24.27;;;;;;;4.32;99.48;103423.97;5025868;28;20092;-77
2021/12/16 08:14:33;;;;;;;53.97;23.95;;;;;;;4.29;99.50;103427.47;5034477;28;20573;-77
2021/12/16 08:16:59;;;;;;;61.60;24.80;;;;;;;4.29;99.34;103424.91;5010116;28;20044;-77
2021/12/16 08:19:25;;;;;;;57.85;25.08;;;;;;;4.31;99.03;103427.41;5026021;28;20041;-77
2021/12/16 08:21:50;;;;;;;51.45;22.80;;;;;;;4.31;98.91;103435.09;5022256;28;20044;-77
2021/12/16 08:24:17;;;;;;;49.20;23.67;;;;;;;4.32;99.11;103429.09;5024471;28;20041;-77
2021/12/16 08:26:46;;;;;;;56.40;25.55;;;;;;;4.34;99.32;103436.75;5026374;28;20103;-77
2021/12/16 08:29:12;;;;;;;55.83;24.27;;;;;;;4.35;99.12;103449.56;5029554;28;20491;-77
2021/12/16 08:31:37;;;;;;;54.90;23.50;;;;;;;4.37;99.46;103447.78;5027746;28;20036;-77
2021/12/16 08:34:04;;;;;;;53.58;23.80;;;;;;;4.40;99.18;103441.69;5021049;28;20033;-77
2021/12/16 08:36:30;;;;;;;60.28;24.23;;;;;;;4.43;99.16;103437.28;5012217;28;20131;-77
2021/12/16 08:38:56;;;;;;;57.22;23.65;;;;;;;4.44;99.29;103449.22;5011240;28;20037;-77
2021/12/16 08:41:30;;;;;;;57.30;24.33;;;;;;;4.45;99.09;103442.38;5025044;28;20029;-77
2021/12/16 08:43:57;;;;;;;55.22;23.92;;;;;;;4.46;99.24;103436.31;5026770;28;20484;-77
2021/12/16 08:46:26;;;;;;;57.55;25.40;;;;;;;4.48;98.88;103448.25;5027385;28;20033;-77
2021/12/16 08:48:53;;;;;;;58.40;27.15;;;;;;;4.53;99.25;103457.53;5024593;28;20052;-77
2021/12/16 08:51:21;;;;;;;60.58;26.27;;;;;;;4.55;99.69;103455.75;5028013;28;20044;-77
2021/12/16 08:53:49;;;;;;;52.33;24.27;;;;;;;4.57;99.31;103453.97;5028214;28;20028;-77
2021/12/16 08:56:15;;;;;;;57.95;24.08;;;;;;;4.60;99.71;103459.00;5028714;28;20073;-77
2021/12/16 08:58:40;;;;;;;60.53;24.65;;;;;;;4.62;99.44;103460.63;5034447;28;20091;-77
2021/12/16 09:01:14;;;;;;;56.95;24.83;;;;;;;4.66;99.82;103456.22;5025673;28;20041;-77
2021/12/16 09:03:40;;;;;;;69.43;29.25;;;;;;;4.68;99.54;103457.00;5032246;28;20045;-77
2021/12/16 09:06:06;;;;;;;57.08;24.48;;;;;;;4.74;99.69;103467.06;5025311;28;20033;-77
2021/12/16 09:08:31;;;;;;;53.50;23.40;;;;;;;4.75;99.92;103476.47;5009346;28;20029;-77
2021/12/16 09:10:57;;;;;;;50.05;22.83;;;;;;;4.74;99.80;103472.22;5025649;28;20056;-77
2021/12/16 09:13:24;;;;;;;50.30;24.52;;;;;;;4.79;99.74;103470.31;5027452;28;20036;-77
2021/12/16 09:15:59;;;;;;;53.75;24.23;;;;;;;4.83;99.66;103471.91;5022997;28;20415;-79
2021/12/16 09:18:28;;;;;;;50.83;22.58;;;;;;;4.89;99.98;103478.56;5023020;28;20040;-78
2021/12/16 09:20:55;;;;;;;43.08;22.00;;;;;;;4.96;100.00;103479.19;5003904;28;20053;-79
2021/12/16 09:23:21;;;;;;;47.00;23.90;;;;;;;5.01;100.00;103482.41;5024206;28;20543;-79
2021/12/16 09:25:51;;;;;;;46.55;22.80;;;;;;;5.11;100.00;103493.25;5028385;28;20172;-79
2021/12/16 09:28:20;;;;;;;47.03;23.83;;;;;;;5.13;100.00;103500.00;5032198;28;20065;-79
2021/12/16 09:30:45;;;;;;;54.97;24.38;;;;;;;5.09;100.00;103501.00;5014713;28;20045;-79
2021/12/16 09:33:15;;;;;;;46.90;23.60;;;;;;;5.06;100.00;103501.13;5029828;28;20499;-79
2021/12/16 09:35:44;;;;;;;48.33;24.45;;;;;;;5.07;100.00;103503.63;5024947;28;20037;-78
2021/12/16 09:38:11;;;;;;;50.90;24.23;;;;;;;5.11;100.00;103499.22;5028711;28;20147;-79
2021/12/16 09:40:46;;;;;;;56.65;26.63;;;;;;;5.19;100.00;103499.78;5026374;28;20036;-79
2021/12/16 09:43:12;;;;;;;61.38;28.77;;;;;;;5.26;100.00;103508.13;5032428;28;20083;-79
2021/12/16 09:45:38;;;;;;;60.40;28.55;;;;;;;5.32;100.00;103512.22;5012777;28;20022;-79
2021/12/16 09:48:03;;;;;;;72.80;32.20;;;;;;;5.44;100.00;103507.47;5025283;28;20091;-79
2021/12/16 09:50:31;;;;;;;77.30;33.10;;;;;;;5.50;100.00;103508.97;5031737;28;20122;-78
2021/12/16 09:52:58;;;;;;;85.10;36.20;;;;;;;5.56;100.00;103507.91;5002829;28;20696;-79
2021/12/16 09:55:24;;;;;;;99.32;40.03;;;;;;;5.64;100.00;103516.19;5023726;28;20048;-79
2021/12/16 09:57:50;;;;;;;130.10;47.08;;;;;;;5.74;100.00;103514.09;5025265;28;20080;-78
2021/12/16 10:00:22;;;;;;;128.00;46.78;;;;;;;5.91;100.00;103513.44;5025723;28;20492;-78
2021/12/16 10:02:50;;;;;;;146.95;51.90;;;;;;;6.03;100.00;103510.44;5026214;28;20033;-78
2021/12/16 10:05:16;;;;;;;158.43;53.13;;;;;;;6.17;100.00;103510.72;5020551;28;20072;-78
2021/12/16 10:07:42;;;;;;;176.10;53.00;;;;;;;6.24;100.00;103498.44;5024535;28;20033;-78
2021/12/16 10:10:17;;;;;;;178.75;54.35;;;;;;;6.30;100.00;103494.78;5026373;28;20104;-79
2021/12/16 10:12:46;;;;;;;157.48;53.28;;;;;;;6.35;100.00;103496.25;5029429;28;20029;-79
2021/12/16 10:18:05;;;;;;;157.70;51.78;;;;;;;6.38;100.00;103493.53;5027081;28;20033;-79
2021/12/16 10:20:36;;;;;;;155.65;51.75;;;;;;;6.45;100.00;103494.16;5026963;28;20483;-79
2021/12/16 10:23:12;;;;;;;162.00;51.42;;;;;;;6.53;100.00;103491.25;5023834;28;20030;-79
2021/12/16 10:25:45;;;;;;;139.57;47.92;;;;;;;6.52;100.00;103490.41;5015417;28;20388;-79
2021/12/16 10:28:12;;;;;;;;;;;;;;;6.57;100.00;103485.91;5010591;28;20554;-79
2021/12/16 10:31:06;;;;;;;155.18;50.95;;;;;;;6.70;100.00;103493.13;5034579;28;19983;-79
2021/12/16 10:33:37;;;;;;;142.70;48.55;;;;;;;6.73;100.00;103500.72;5024511;28;20065;-79
2021/12/16 10:36:09;;;;;;;134.30;47.20;;;;;;;6.76;100.00;103498.88;5030189;28;20060;-78
2021/12/16 10:38:38;;;;;;;146.75;52.47;;;;;;;6.88;100.00;103494.09;5033122;28;20037;-78
2021/12/16 10:41:05;;;;;;;143.02;51.65;;;;;;;6.93;100.00;103489.53;5032124;28;20649;-79
2021/12/16 10:43:41;;;;;;;157.65;52.95;;;;;;;6.96;100.00;103494.59;5032252;28;20044;-79
2021/12/16 10:46:16;;;;;;;160.77;52.90;;;;;;;6.90;100.00;103506.00;5019795;28;20047;-79
2021/12/16 10:48:43;;;;;;;145.88;50.30;;;;;;;6.90;100.00;103498.25;5014553;28;20179;-79
2021/12/16 10:51:19;;;;;;;167.55;54.30;;;;;;;6.92;100.00;103499.03;5028956;28;20129;-79
2021/12/16 10:53:53;;;;;;;167.63;54.95;;;;;;;6.94;100.00;103504.97;5031744;28;20041;-79
2021/12/16 10:56:23;;;;;;;169.93;56.95;;;;;;;6.98;100.00;103503.91;5031465;28;20037;-79
2021/12/16 10:58:52;;;;;;;174.10;56.35;;;;;;;7.02;100.00;103504.63;5028501;28;20140;-79
2021/12/16 11:01:36;;;;;;;167.75;55.90;;;;;;;7.06;100.00;103513.91;5027370;28;20061;-79
2021/12/16 11:04:08;;;;;;;180.13;56.80;;;;;;;7.04;100.00;103514.88;5025978;28;20034;-79
2021/12/16 11:06:39;;;;;;;174.20;58.28;;;;;;;7.04;100.00;103514.88;5030913;28;20415;-79
2021/12/16 11:09:29;;;;;;;171.45;54.72;;;;;;;7.07;100.00;103513.00;5026311;28;20099;-79
2021/12/16 11:12:27;;;;;;;173.88;56.25;;;;;;;7.16;100.00;103515.19;5030013;28;20092;-79
2021/12/16 11:15:00;;;;;;;181.13;57.85;;;;;;;7.18;100.00;103515.97;5029781;28;20037;-79
2021/12/16 11:17:32;;;;;;;166.23;55.47;;;;;;;7.18;100.00;103525.47;5030016;28;20032;-78
2021/12/16 11:20:03;;;;;;;155.65;55.50;;;;;;;7.16;100.00;103525.53;5009335;28;20069;-79
2021/12/16 11:22:36;;;;;;;155.43;55.35;;;;;;;7.15;100.00;103523.81;5025589;28;20041;-79
2021/12/16 11:25:16;;;;;;;160.98;54.00;;;;;;;7.14;100.00;103532.50;5028116;28;20033;-79
2021/12/16 11:27:44;;;;;;;157.13;53.03;;;;;;;7.13;100.00;103528.22;5026954;28;20562;-79
2021/12/16 11:30:39;;;;;;;158.65;53.90;;;;;;;7.13;100.00;103530.81;5027103;28;20073;-79
2021/12/16 11:33:34;;;;;;;162.70;53.67;;;;;;;7.16;100.00;103524.69;4996877;28;20113;-78
2021/12/16 11:36:11;;;;;;;170.90;55.78;;;;;;;7.12;100.00;103510.22;5009162;28;20403;-79
2021/12/16 11:38:44;;;;;;;157.63;53.72;;;;;;;7.19;100.00;103514.22;5018964;28;20179;-79
2021/12/16 11:41:15;;;;;;;159.45;52.88;;;;;;;7.25;100.00;103523.44;5012755;28;20127;-79
2021/12/16 11:43:43;;;;;;;145.70;49.95;;;;;;;7.30;100.00;103513.75;5030031;28;20034;-79
2021/12/16 11:46:37;;;;;;;147.52;50.75;;;;;;;7.36;100.00;103516.88;5021710;28;20037;-79
2021/12/16 11:49:10;;;;;;;164.68;51.53;;;;;;;7.36;100.00;103516.88;5018746;28;20052;-79
2021/12/16 11:51:40;;;;;;;142.05;51.17;;;;;;;7.35;100.00;103509.22;5031485;28;20033;-79
2021/12/16 11:54:16;;;;;;;131.70;47.80;;;;;;;7.34;100.00;103500.63;5020859;28;20120;-79
2021/12/16 11:56:49;;;;;;;146.07;50.55;;;;;;;7.37;100.00;103497.91;5004722;28;20554;-79
2021/12/16 11:59:31;;;;;;;136.85;48.47;;;;;;;7.39;100.00;103505.59;5023631;28;20079;-79
2021/12/16 12:01:58;;;;;;;135.02;47.42;;;;;;;7.44;100.00;103497.63;5028047;28;20038;-79
2021/12/16 12:04:28;;;;;;;138.48;50.13;;;;;;;7.45;100.00;103507.06;5014245;28;20129;-79
2021/12/16 12:06:54;;;;;;;129.15;45.95;;;;;;;7.44;100.00;103501.06;5022037;28;20045;-79
2021/12/16 12:09:31;;;;;;;125.20;46.03;;;;;;;7.44;100.00;103500.22;5025228;28;20042;-79
2021/12/16 12:11:57;;;;;;;143.88;49.50;;;;;;;7.56;100.00;103500.50;5030886;28;20040;-79
2021/12/16 12:14:31;;;;;;;137.82;45.63;;;;;;;7.53;100.00;103500.63;5032748;28;20119;-79
2021/12/16 12:17:04;;;;;;;137.30;46.88;;;;;;;7.58;100.00;103503.84;5028912;28;20037;-78
2021/12/16 12:19:29;;;;;;;129.30;49.15;;;;;;;7.72;100.00;103497.19;5028711;28;20491;-77
2021/12/16 12:22:03;;;;;;;131.07;47.08;;;;;;;7.65;100.00;103501.81;5025509;28;20057;-79
2021/12/16 12:24:37;;;;;;;136.13;48.55;;;;;;;7.73;100.00;103498.88;5013498;28;20029;-79
2021/12/16 12:27:11;;;;;;;129.50;47.60;;;;;;;7.78;100.00;103505.50;5037750;28;20407;-79
2021/12/16 12:29:43;;;;;;;125.60;44.72;;;;;;;7.80;100.00;103495.94;5029257;28;20068;-79
2021/12/16 12:32:11;;;;;;;124.85;45.75;;;;;;;7.81;100.00;103489.03;5029926;28;20032;-79
2021/12/16 12:34:41;;;;;;;134.48;46.08;;;;;;;7.78;100.00;103490.00;5027763;28;20048;-80
2021/12/16 12:37:09;;;;;;;117.30;44.60;;;;;;;7.77;100.00;103488.31;5034642;28;20048;-79
2021/12/16 12:39:39;;;;;;;121.00;44.92;;;;;;;7.75;100.00;103490.16;5004422;28;20108;-80
2021/12/16 12:42:08;;;;;;;124.07;46.33;;;;;;;7.80;100.00;103488.19;5025679;28;20041;-79
2021/12/16 12:44:33;;;;;;;142.52;48.67;;;;;;;7.83;100.00;103492.38;5024519;28;20048;-79
2021/12/16 12:47:02;;;;;;;124.22;43.80;;;;;;;7.80;100.00;103497.69;5027315;28;20029;-79
2021/12/16 12:49:30;;;;;;;116.72;44.78;;;;;;;7.79;100.00;103494.25;5023939;28;20120;-79
2021/12/16 12:52:15;;;;;;;125.75;47.00;;;;;;;7.82;100.00;103498.47;5026866;28;20098;-79
2021/12/16 12:54:45;;;;;;;137.02;48.80;;;;;;;7.92;100.00;103496.28;5030839;28;20057;-79
2021/12/16 12:57:25;;;;;;;128.48;47.03;;;;;;;7.89;100.00;103492.09;5012649;28;20225;-80
2021/12/16 12:59:53;;;;;;;124.88;46.08;;;;;;;7.90;100.00;103498.09;5029507;28;20037;-80
2021/12/16 13:02:34;;;;;;;126.10;45.00;;;;;;;7.96;100.00;103501.22;5025668;28;20029;-80
2021/12/16 13:05:16;;;;;;;121.35;44.97;;;;;;;7.93;100.00;103505.69;5022072;28;20034;-79
2021/12/16 13:08:08;;;;;;;124.75;44.38;;;;;;;7.91;100.00;103500.59;5025940;28;20034;-79
2021/12/16 13:10:47;;;;;;;120.45;45.30;;;;;;;7.98;100.00;103509.72;5005128;28;20041;-79
2021/12/16 13:13:31;;;;;;;121.00;45.78;;;;;;;8.02;100.00;103510.41;5024442;28;20504;-79
2021/12/16 13:16:50;;;;;;;124.22;42.60;;;;;;;7.99;100.00;103502.81;5013264;28;20036;-80
2021/12/16 13:28:15;;;;;;;122.50;45.15;;;;;;;8.06;100.00;103503.34;5028371;28;20044;-80
2021/12/16 13:30:53;;;;;;;112.93;44.10;;;;;;;8.07;100.00;103500.69;5014257;28;20499;-79
2021/12/16 13:33:23;;;;;;;113.40;44.40;;;;;;;8.08;100.00;103494.63;5048111;28;20387;-79
2021/12/16 13:36:03;;;;;;;111.93;43.90;;;;;;;8.10;100.00;103499.69;5035611;28;20498;-79
2021/12/16 13:38:41;;;;;;;105.00;40.58;;;;;;;8.10;100.00;103497.13;5023519;28;20447;-79
2021/12/16 13:41:10;;;;;;;100.93;42.67;;;;;;;8.17;100.00;103495.91;5013826;28;20029;-79
2021/12/16 13:43:37;;;;;;;104.68;42.63;;;;;;;8.14;100.00;103501.25;5029734;28;20152;-79
2021/12/16 14:05:54;;;;;;;106.75;43.20;;;;;;;8.04;100.00;103518.09;5033389;28;20036;-80
2021/12/16 14:08:46;;;;;;;99.18;40.00;;;;;;;8.05;100.00;103520.63;5014837;28;20029;-80